createdAt,value
2023-02-11T17:05:29.741Z,8.80
2023-02-11T17:10:23.062Z,8.80
2023-02-11T17:15:16.383Z,8.90
2023-02-11T17:20:09.703Z,8.80
2023-02-11T17:25:07.539Z,8.90
2023-02-11T17:30:06.038Z,9.00
2023-02-11T17:34:59.333Z,8.80
2023-02-11T17:39:52.632Z,8.90
2023-02-11T17:44:45.961Z,8.80
2023-02-11T17:49:41.531Z,8.90
2023-02-11T17:54:32.890Z,9.00
2023-02-11T17:59:23.979Z,8.90
2023-02-11T18:04:17.033Z,8.90
2023-02-11T18:09:10.286Z,8.90
2023-02-11T18:14:03.614Z,8.90
2023-02-11T18:19:06.340Z,8.90
2023-02-11T18:24:06.632Z,8.90
2023-02-11T18:28:57.591Z,9.00
2023-02-11T18:33:57.652Z,8.90
2023-02-11T18:38:57.766Z,8.90
2023-02-11T18:44:11.434Z,8.80
2023-02-11T18:49:04.699Z,8.90
2023-02-11T18:54:07.049Z,8.90
2023-02-11T18:59:00.389Z,8.90
2023-02-11T19:03:51.704Z,8.80
2023-02-11T19:08:59.881Z,8.90
2023-02-11T19:13:51.653Z,8.80
2023-02-11T19:18:47.201Z,8.80
2023-02-11T19:23:40.551Z,8.70
2023-02-11T19:28:36.144Z,8.80
2023-02-11T19:33:36.200Z,8.80
2023-02-11T19:38:34.023Z,8.90
2023-02-11T19:43:31.923Z,8.80
2023-02-11T19:48:41.038Z,8.80
2023-02-11T19:53:45.647Z,8.70
2023-02-11T19:58:38.920Z,8.60
2023-02-11T20:03:36.765Z,8.70
2023-02-11T20:08:36.951Z,8.80
2023-02-11T20:13:30.182Z,8.80
2023-02-11T20:19:30.631Z,8.70
2023-02-11T20:25:19.731Z,8.60
2023-02-11T20:30:19.835Z,8.50
2023-02-11T20:35:17.686Z,8.40
2023-02-11T20:40:17.806Z,8.40
2023-02-11T20:45:11.109Z,8.40
2023-02-11T20:50:11.291Z,8.50
2023-02-11T20:55:06.784Z,8.40
2023-02-11T21:00:00.120Z,8.30
2023-02-11T21:04:53.420Z,8.30
2023-02-11T21:09:46.720Z,8.40
2023-02-11T21:14:40.044Z,8.40
2023-02-11T21:19:35.798Z,8.40
2023-02-11T21:24:29.130Z,8.40
2023-02-11T21:29:22.451Z,8.40
2023-02-11T21:34:15.774Z,8.40
2023-02-11T21:39:15.856Z,8.30
2023-02-11T21:44:13.691Z,8.30
2023-02-11T21:49:13.839Z,8.20
2023-02-11T21:54:07.121Z,8.30
2023-02-11T21:59:00.445Z,8.30
2023-02-11T22:03:56.026Z,8.30
2023-02-11T22:08:47.399Z,8.20
2023-02-11T22:13:42.673Z,8.20
2023-02-11T22:18:35.992Z,8.20
2023-02-11T22:23:29.329Z,8.20
2023-02-11T22:28:27.201Z,8.30
2023-02-11T22:33:29.559Z,8.30
2023-02-11T22:38:20.828Z,8.30
2023-02-11T22:43:14.415Z,8.30
2023-02-11T22:48:07.719Z,8.30
2023-02-11T22:53:01.052Z,8.40
2023-02-11T22:57:58.881Z,8.30
2023-02-11T23:02:59.034Z,8.30
2023-02-11T23:07:52.324Z,8.30
2023-02-11T23:12:47.869Z,8.30
2023-02-11T23:17:41.185Z,8.20
2023-02-11T23:22:36.893Z,8.20
2023-02-11T23:27:32.356Z,8.20
2023-02-11T23:32:32.479Z,8.40
2023-02-11T23:37:28.031Z,8.30
2023-02-11T23:42:21.369Z,8.30
2023-02-11T23:47:28.231Z,8.20
2023-02-11T23:52:21.563Z,8.20
2023-02-11T23:57:17.137Z,8.10
